Terminal Aerodrome Forecast
Issued by NWS Memphis, TN

Home | Current Version | Previous Version | Text Only | Print | Product List | Glossary On
Versions: 1 2 3 4 5 6 7 8 9 10 11 12 13 14 15 16 17 18 19 20 21 22 23 24 25 26 27 28 29 30 31 32
495
FTUS44 KMEG 071131
TAFMEM
TAF
KMEM 071131Z 0712/0812 03007KT P6SM BKN025 BKN080
     FM071600 04007KT P6SM BKN250
     FM080000 02006KT P6SM SCT025 BKN120
     FM080800 01009KT P6SM BKN060=

USA.gov is the U.S. government's official web portal to all federal, state and local government web resources and services.